Eems Trader — V2DE3 — position and weather

sailwx.info

Track history (hours):
 
Tides and Currents Weather Stations Pressure Air Temp Water Temp Dewpoint Dewpoint Depression Visibility Wind Speed Wind Dir Waves Ship Positions

Eems Trader

Last reported at 2016-Feb-13 10:33 UTC. Time now 2016-Feb-13 10:58 UTC.
Position N 43°25' E 004°55'.

Length 89 m; draft 3.1 m.

Type: Cargo ship. MMSI: 305182000.

Date/timePositionNaut miles runAvg speedWind from/ knotsBaromVisibWave heightAir tempDewpointWater temp
2016-Feb-13 10:33N 43°25' E 004°55'0 0.0
2016-Feb-13 09:33N 43°25' E 004°55'0 0.0
2016-Feb-13 08:33N 43°25' E 004°55'0 0.0
2016-Feb-13 07:30N 43°25' E 004°55'0 0.0
2016-Feb-13 06:33N 43°25' E 004°55'0 0.0
2016-Feb-13 05:33N 43°25' E 004°55'0 0.0
2016-Feb-13 04:33N 43°25' E 004°55'0 0.0
2016-Feb-13 03:33N 43°25' E 004°55'0 0.0
2016-Feb-13 02:33N 43°25' E 004°55'0 0.0
2016-Feb-13 01:30N 43°25' E 004°55'0 0.0
2016-Feb-13 00:33N 43°25' E 004°55'0 0.0
2016-Feb-12 23:24N 43°25' E 004°55'0 0.0
2016-Feb-12 22:33N 43°25' E 004°55'0 0.0
2016-Feb-12 21:24N 43°25' E 004°55'0 0.1
2016-Feb-12 20:33N 43°25' E 004°55'0 0.1
2016-Feb-12 19:33N 43°25' E 004°55'0 0.1
2016-Feb-12 18:30N 43°25' E 004°55'0 0.0
2016-Feb-12 17:33N 43°25' E 004°55'0 0.1
2016-Feb-12 16:33N 43°25' E 004°55'6 6.1
2016-Feb-12 15:33N 43°20' E 004°59'8 8.2
2016-Feb-12 14:33N 43°12' E 005°03'2 2.3
2016-Feb-12 13:33N 43°10' E 005°05'5 4.9
2016-Feb-12 12:33N 43°06' E 005°08'9 8.5
2016-Feb-12 11:33N 42°58' E 005°14'146 8.1
2016-Feb-11 17:28N 43°38' E 008°27'8 8.5
2016-Feb-11 16:33N 43°40' E 008°37'8 8.4
2016-Feb-11 15:33N 43°43' E 008°48'9 8.6
2016-Feb-11 14:33N 43°46' E 008°60'9 8.7
2016-Feb-11 13:33N 43°49' E 009°11'9 8.9
2016-Feb-11 12:33N 43°52' E 009°23'8 8.5
2016-Feb-11 11:33N 43°55' E 009°34'8 8.3
2016-Feb-11 10:33N 43°58' E 009°44'7 7.3
2016-Feb-11 09:33N 44°03' E 009°52'4 3.6
2016-Feb-11 08:32N 44°06' E 009°50'0 0.0
2016-Feb-11 07:32N 44°06' E 009°50'0 0.0
2016-Feb-11 06:32N 44°06' E 009°50'0 0.0
2016-Feb-11 05:29N 44°06' E 009°50'0 0.0
2016-Feb-11 04:32N 44°06' E 009°50'0 0.0
2016-Feb-11 03:32N 44°06' E 009°50'0 0.0
2016-Feb-11 02:32N 44°06' E 009°50'0 0.0
2016-Feb-11 01:32N 44°06' E 009°50'0 0.0
2016-Feb-11 00:32N 44°06' E 009°50'0 0.0
2016-Feb-10 23:32N 44°06' E 009°50'0 0.0
2016-Feb-10 22:32N 44°06' E 009°50'0 0.0
2016-Feb-10 21:31N 44°06' E 009°50'0 0.0
2016-Feb-10 20:31N 44°06' E 009°50'0 0.0
2016-Feb-10 19:31N 44°06' E 009°50'0 0.0
2016-Feb-10 18:31N 44°06' E 009°50'0 0.0
2016-Feb-10 17:31N 44°06' E 009°50'0 0.0
2016-Feb-10 16:31N 44°06' E 009°50'0 0.0
2016-Feb-10 15:31N 44°06' E 009°50'0 0.0
2016-Feb-10 14:31N 44°06' E 009°50'0 0.0
2016-Feb-10 13:31N 44°06' E 009°50'0 0.0
2016-Feb-10 12:31N 44°06' E 009°50'0 0.0
2016-Feb-10 11:31N 44°06' E 009°50'0 0.0
2016-Feb-10 10:31N 44°06' E 009°50'0 0.0
2016-Feb-10 09:31N 44°06' E 009°50'0 0.0
2016-Feb-10 08:31N 44°06' E 009°50'0 0.5
2016-Feb-10 07:34N 44°06' E 009°51'4 4.1
2016-Feb-10 06:34N 44°02' E 009°53'4 3.5
2016-Feb-10 05:34N 43°59' E 009°54'7 7.2
2016-Feb-10 04:34N 43°57' E 009°44'8 7.7
2016-Feb-10 03:34N 43°56' E 009°34'8 7.9
2016-Feb-10 02:34N 43°55' E 009°23'8 7.8
2016-Feb-10 01:34N 43°55' E 009°12'7 7.4
2016-Feb-10 00:34N 43°54' E 009°02'7 7.4
2016-Feb-09 23:34N 43°53' E 008°52'8 7.6
2016-Feb-09 22:34N 43°52' E 008°41'8 7.5
2016-Feb-09 21:32N 43°52' E 008°31'154 7.7
2016-Feb-09 01:33N 42°02' E 006°03'8 8.5
2016-Feb-09 00:33N 41°54' E 005°57'152 8.4
2016-Feb-08 06:21N 40°18' E 003°21'7 8.6
2016-Feb-08 05:33N 40°14' E 003°14'9 8.7
2016-Feb-08 04:33N 40°09' E 003°05'9 8.7
2016-Feb-08 03:33N 40°04' E 002°56'9 9.3
2016-Feb-08 02:33N 39°58' E 002°46'9 8.9
2016-Feb-08 01:33N 39°53' E 002°36'9 9.0
2016-Feb-08 00:33N 39°47' E 002°27'8 8.1
2016-Feb-07 23:33N 39°42' E 002°19'7 7.3
2016-Feb-07 22:33N 39°38' E 002°11'8 7.6
2016-Feb-07 21:33N 39°33' E 002°03'8 7.7
2016-Feb-07 20:33N 39°29' E 001°55'8 7.5
2016-Feb-07 19:33N 39°24' E 001°48'8 7.6
2016-Feb-07 18:33N 39°20' E 001°40'135 7.0
2016-Feb-06 23:25N 37°43' W 000°20'7 8.3
2016-Feb-06 22:33N 37°37' W 000°26'17 8.1
2016-Feb-06 20:29N 37°25' W 000°41'8 8.9
2016-Feb-06 19:33N 37°20' W 000°49'10 8.7
2016-Feb-06 18:26N 37°13' W 000°58'8 8.9
2016-Feb-06 17:33N 37°08' W 001°05'211 8.1
2016-Feb-05 15:33N 36°02' W 005°15'8 7.7
2016-Feb-05 14:34N 36°06' W 005°23'5 0.6
2016-Feb-05 06:28N 36°11' W 005°25'0 0.0
2016-Feb-04 22:10N 36°11' W 005°25'0 0.0
2016-Feb-04 21:31N 36°11' W 005°25'0 0.0
2016-Feb-04 07:11N 36°11' W 005°25'1 2.2
2016-Feb-04 06:32N 36°09' W 005°24'5 4.7
2016-Feb-04 05:33N 36°05' W 005°23'7 7.3
2016-Feb-04 04:33N 35°58' W 005°26'10 8.7
2016-Feb-04 03:25N 35°54' W 005°37'  
Track history (hours):
 
Tides and Currents Weather Stations Pressure Air Temp Water Temp Dewpoint Dewpoint Depression Visibility Wind Speed Wind Dir Waves Ship Positions

Eems Trader

Last reported at 2016-Feb-13 10:33 UTC. Time now 2016-Feb-13 10:58 UTC.
Position N 43°25' E 004°55'.

Length 89 m; draft 3.1 m.

Type: Cargo ship. MMSI: 305182000.

Date/timePositionNaut miles runAvg speedWind from/ knotsBaromVisibWave heightAir tempDewpointWater temp
2016-Feb-13 10:33N 43°25' E 004°55'0 0.0
2016-Feb-13 09:33N 43°25' E 004°55'0 0.0
2016-Feb-13 08:33N 43°25' E 004°55'0 0.0
2016-Feb-13 07:30N 43°25' E 004°55'0 0.0
2016-Feb-13 06:33N 43°25' E 004°55'0 0.0
2016-Feb-13 05:33N 43°25' E 004°55'0 0.0
2016-Feb-13 04:33N 43°25' E 004°55'0 0.0
2016-Feb-13 03:33N 43°25' E 004°55'0 0.0
2016-Feb-13 02:33N 43°25' E 004°55'0 0.0
2016-Feb-13 01:30N 43°25' E 004°55'0 0.0
2016-Feb-13 00:33N 43°25' E 004°55'0 0.0
2016-Feb-12 23:24N 43°25' E 004°55'0 0.0
2016-Feb-12 22:33N 43°25' E 004°55'0 0.0
2016-Feb-12 21:24N 43°25' E 004°55'0 0.1
2016-Feb-12 20:33N 43°25' E 004°55'0 0.1
2016-Feb-12 19:33N 43°25' E 004°55'0 0.1
2016-Feb-12 18:30N 43°25' E 004°55'0 0.0
2016-Feb-12 17:33N 43°25' E 004°55'0 0.1
2016-Feb-12 16:33N 43°25' E 004°55'6 6.1
2016-Feb-12 15:33N 43°20' E 004°59'8 8.2
2016-Feb-12 14:33N 43°12' E 005°03'2 2.3
2016-Feb-12 13:33N 43°10' E 005°05'5 4.9
2016-Feb-12 12:33N 43°06' E 005°08'9 8.5
2016-Feb-12 11:33N 42°58' E 005°14'146 8.1
2016-Feb-11 17:28N 43°38' E 008°27'8 8.5
2016-Feb-11 16:33N 43°40' E 008°37'8 8.4
2016-Feb-11 15:33N 43°43' E 008°48'9 8.6
2016-Feb-11 14:33N 43°46' E 008°60'9 8.7
2016-Feb-11 13:33N 43°49' E 009°11'9 8.9
2016-Feb-11 12:33N 43°52' E 009°23'8 8.5
2016-Feb-11 11:33N 43°55' E 009°34'8 8.3
2016-Feb-11 10:33N 43°58' E 009°44'7 7.3
2016-Feb-11 09:33N 44°03' E 009°52'4 3.6
2016-Feb-11 08:32N 44°06' E 009°50'0 0.0
2016-Feb-11 07:32N 44°06' E 009°50'0 0.0
2016-Feb-11 06:32N 44°06' E 009°50'0 0.0
2016-Feb-11 05:29N 44°06' E 009°50'0 0.0
2016-Feb-11 04:32N 44°06' E 009°50'0 0.0
2016-Feb-11 03:32N 44°06' E 009°50'0 0.0
2016-Feb-11 02:32N 44°06' E 009°50'0 0.0
2016-Feb-11 01:32N 44°06' E 009°50'0 0.0
2016-Feb-11 00:32N 44°06' E 009°50'0 0.0
2016-Feb-10 23:32N 44°06' E 009°50'0 0.0
2016-Feb-10 22:32N 44°06' E 009°50'0 0.0
2016-Feb-10 21:31N 44°06' E 009°50'0 0.0
2016-Feb-10 20:31N 44°06' E 009°50'0 0.0
2016-Feb-10 19:31N 44°06' E 009°50'0 0.0
2016-Feb-10 18:31N 44°06' E 009°50'0 0.0
2016-Feb-10 17:31N 44°06' E 009°50'0 0.0
2016-Feb-10 16:31N 44°06' E 009°50'0 0.0
2016-Feb-10 15:31N 44°06' E 009°50'0 0.0
2016-Feb-10 14:31N 44°06' E 009°50'0 0.0
2016-Feb-10 13:31N 44°06' E 009°50'0 0.0
2016-Feb-10 12:31N 44°06' E 009°50'0 0.0
2016-Feb-10 11:31N 44°06' E 009°50'0 0.0
2016-Feb-10 10:31N 44°06' E 009°50'0 0.0
2016-Feb-10 09:31N 44°06' E 009°50'0 0.0
2016-Feb-10 08:31N 44°06' E 009°50'0 0.5
2016-Feb-10 07:34N 44°06' E 009°51'4 4.1
2016-Feb-10 06:34N 44°02' E 009°53'4 3.5
2016-Feb-10 05:34N 43°59' E 009°54'7 7.2
2016-Feb-10 04:34N 43°57' E 009°44'8 7.7
2016-Feb-10 03:34N 43°56' E 009°34'8 7.9
2016-Feb-10 02:34N 43°55' E 009°23'8 7.8
2016-Feb-10 01:34N 43°55' E 009°12'7 7.4
2016-Feb-10 00:34N 43°54' E 009°02'7 7.4
2016-Feb-09 23:34N 43°53' E 008°52'8 7.6
2016-Feb-09 22:34N 43°52' E 008°41'8 7.5
2016-Feb-09 21:32N 43°52' E 008°31'154 7.7
2016-Feb-09 01:33N 42°02' E 006°03'8 8.5
2016-Feb-09 00:33N 41°54' E 005°57'152 8.4
2016-Feb-08 06:21N 40°18' E 003°21'7 8.6
2016-Feb-08 05:33N 40°14' E 003°14'9 8.7
2016-Feb-08 04:33N 40°09' E 003°05'9 8.7
2016-Feb-08 03:33N 40°04' E 002°56'9 9.3
2016-Feb-08 02:33N 39°58' E 002°46'9 8.9
2016-Feb-08 01:33N 39°53' E 002°36'9 9.0
2016-Feb-08 00:33N 39°47' E 002°27'8 8.1
2016-Feb-07 23:33N 39°42' E 002°19'7 7.3
2016-Feb-07 22:33N 39°38' E 002°11'8 7.6
2016-Feb-07 21:33N 39°33' E 002°03'8 7.7
2016-Feb-07 20:33N 39°29' E 001°55'8 7.5
2016-Feb-07 19:33N 39°24' E 001°48'8 7.6
2016-Feb-07 18:33N 39°20' E 001°40'135 7.0
2016-Feb-06 23:25N 37°43' W 000°20'7 8.3
2016-Feb-06 22:33N 37°37' W 000°26'17 8.1
2016-Feb-06 20:29N 37°25' W 000°41'8 8.9
2016-Feb-06 19:33N 37°20' W 000°49'10 8.7
2016-Feb-06 18:26N 37°13' W 000°58'8 8.9
2016-Feb-06 17:33N 37°08' W 001°05'211 8.1
2016-Feb-05 15:33N 36°02' W 005°15'8 7.7
2016-Feb-05 14:34N 36°06' W 005°23'5 0.6
2016-Feb-05 06:28N 36°11' W 005°25'0 0.0
2016-Feb-04 22:10N 36°11' W 005°25'0 0.0
2016-Feb-04 21:31N 36°11' W 005°25'0 0.0
2016-Feb-04 07:11N 36°11' W 005°25'1 2.2
2016-Feb-04 06:32N 36°09' W 005°24'5 4.7
2016-Feb-04 05:33N 36°05' W 005°23'7 7.3
2016-Feb-04 04:33N 35°58' W 005°26'10 8.7
2016-Feb-04 03:25N 35°54' W 005°37'  

Dump ship's entire track history